sensor_id;sensor_type;location;lat;lon;timestamp;P1;durP1;ratioP1;P2;durP2;ratioP2
38715;SDS011;24833;49.324;8.694;2022-07-24T00:01:38;3.30;;;2.92;;
38715;SDS011;24833;49.324;8.694;2022-07-24T00:04:06;3.88;;;3.42;;
38715;SDS011;24833;49.324;8.694;2022-07-24T00:06:33;3.60;;;2.83;;
38715;SDS011;24833;49.324;8.694;2022-07-24T00:09:01;2.97;;;2.78;;
38715;SDS011;24833;49.324;8.694;2022-07-24T00:11:30;5.32;;;3.17;;
38715;SDS011;24833;49.324;8.694;2022-07-24T00:13:57;4.10;;;2.97;;
38715;SDS011;24833;49.324;8.694;2022-07-24T00:16:24;3.60;;;3.17;;
38715;SDS011;24833;49.324;8.694;2022-07-24T00:18:51;5.68;;;3.22;;
38715;SDS011;24833;49.324;8.694;2022-07-24T00:21:18;3.30;;;3.00;;
38715;SDS011;24833;49.324;8.694;2022-07-24T00:23:46;4.63;;;3.15;;
38715;SDS011;24833;49.324;8.694;2022-07-24T00:26:13;3.80;;;2.95;;
38715;SDS011;24833;49.324;8.694;2022-07-24T00:28:40;3.60;;;3.05;;
38715;SDS011;24833;49.324;8.694;2022-07-24T00:31:08;5.07;;;3.45;;
38715;SDS011;24833;49.324;8.694;2022-07-24T00:33:35;3.42;;;3.13;;
38715;SDS011;24833;49.324;8.694;2022-07-24T00:36:02;4.47;;;3.28;;
38715;SDS011;24833;49.324;8.694;2022-07-24T00:38:29;4.38;;;3.20;;
38715;SDS011;24833;49.324;8.694;2022-07-24T00:40:56;4.43;;;3.35;;
38715;SDS011;24833;49.324;8.694;2022-07-24T00:43:23;3.78;;;3.17;;
38715;SDS011;24833;49.324;8.694;2022-07-24T00:45:50;4.55;;;3.22;;
38715;SDS011;24833;49.324;8.694;2022-07-24T00:48:18;3.95;;;3.55;;
38715;SDS011;24833;49.324;8.694;2022-07-24T00:50:46;4.50;;;3.92;;
38715;SDS011;24833;49.324;8.694;2022-07-24T00:53:14;4.03;;;3.63;;
38715;SDS011;24833;49.324;8.694;2022-07-24T00:55:41;3.78;;;3.35;;
38715;SDS011;24833;49.324;8.694;2022-07-24T00:58:09;3.50;;;3.05;;
38715;SDS011;24833;49.324;8.694;2022-07-24T01:00:37;6.00;;;3.28;;
38715;SDS011;24833;49.324;8.694;2022-07-24T01:03:04;4.50;;;3.03;;
38715;SDS011;24833;49.324;8.694;2022-07-24T01:05:32;8.98;;;3.35;;
38715;SDS011;24833;49.324;8.694;2022-07-24T01:07:59;4.07;;;3.50;;
38715;SDS011;24833;49.324;8.694;2022-07-24T01:10:28;3.80;;;3.40;;
38715;SDS011;24833;49.324;8.694;2022-07-24T01:12:55;4.53;;;3.20;;
38715;SDS011;24833;49.324;8.694;2022-07-24T01:15:23;5.20;;;3.85;;
38715;SDS011;24833;49.324;8.694;2022-07-24T01:17:50;3.72;;;3.42;;
38715;SDS011;24833;49.324;8.694;2022-07-24T01:20:17;3.35;;;3.05;;
38715;SDS011;24833;49.324;8.694;2022-07-24T01:22:44;4.75;;;3.13;;
38715;SDS011;24833;49.324;8.694;2022-07-24T01:25:12;3.50;;;3.20;;
38715;SDS011;24833;49.324;8.694;2022-07-24T01:27:39;3.53;;;3.20;;
38715;SDS011;24833;49.324;8.694;2022-07-24T01:30:06;3.38;;;2.95;;
38715;SDS011;24833;49.324;8.694;2022-07-24T01:32:36;3.85;;;3.47;;
38715;SDS011;24833;49.324;8.694;2022-07-24T01:35:04;4.63;;;3.25;;
38715;SDS011;24833;49.324;8.694;2022-07-24T01:37:32;3.70;;;2.85;;
38715;SDS011;24833;49.324;8.694;2022-07-24T01:39:59;3.85;;;3.42;;
38715;SDS011;24833;49.324;8.694;2022-07-24T01:42:26;4.03;;;3.30;;
38715;SDS011;24833;49.324;8.694;2022-07-24T01:44:53;3.75;;;3.10;;
38715;SDS011;24833;49.324;8.694;2022-07-24T01:47:20;3.15;;;2.90;;
38715;SDS011;24833;49.324;8.694;2022-07-24T01:49:47;3.80;;;3.28;;
38715;SDS011;24833;49.324;8.694;2022-07-24T01:52:14;3.67;;;3.33;;
38715;SDS011;24833;49.324;8.694;2022-07-24T01:54:41;4.13;;;3.30;;
38715;SDS011;24833;49.324;8.694;2022-07-24T01:57:08;4.45;;;3.35;;
38715;SDS011;24833;49.324;8.694;2022-07-24T01:59:35;4.38;;;3.10;;
38715;SDS011;24833;49.324;8.694;2022-07-24T02:02:02;4.95;;;2.95;;
38715;SDS011;24833;49.324;8.694;2022-07-24T02:04:29;4.97;;;3.58;;
38715;SDS011;24833;49.324;8.694;2022-07-24T02:06:56;4.13;;;3.47;;
38715;SDS011;24833;49.324;8.694;2022-07-24T02:09:23;4.38;;;3.97;;
38715;SDS011;24833;49.324;8.694;2022-07-24T02:11:51;4.50;;;4.10;;
38715;SDS011;24833;49.324;8.694;2022-07-24T02:14:19;5.18;;;4.13;;
38715;SDS011;24833;49.324;8.694;2022-07-24T02:16:46;3.25;;;2.95;;
38715;SDS011;24833;49.324;8.694;2022-07-24T02:19:14;4.25;;;3.85;;
38715;SDS011;24833;49.324;8.694;2022-07-24T02:21:41;4.40;;;3.55;;
38715;SDS011;24833;49.324;8.694;2022-07-24T02:24:08;6.95;;;5.07;;
38715;SDS011;24833;49.324;8.694;2022-07-24T02:26:35;5.53;;;4.57;;
38715;SDS011;24833;49.324;8.694;2022-07-24T02:29:02;3.90;;;3.60;;
38715;SDS011;24833;49.324;8.694;2022-07-24T02:31:30;4.20;;;3.80;;
38715;SDS011;24833;49.324;8.694;2022-07-24T02:33:57;4.63;;;4.18;;
38715;SDS011;24833;49.324;8.694;2022-07-24T02:36:24;5.10;;;4.03;;
38715;SDS011;24833;49.324;8.694;2022-07-24T02:38:51;4.10;;;3.63;;
38715;SDS011;24833;49.324;8.694;2022-07-24T02:41:18;3.88;;;3.58;;
38715;SDS011;24833;49.324;8.694;2022-07-24T02:43:46;4.50;;;4.10;;
38715;SDS011;24833;49.324;8.694;2022-07-24T02:46:13;4.65;;;4.22;;
38715;SDS011;24833;49.324;8.694;2022-07-24T02:48:40;4.82;;;3.83;;
38715;SDS011;24833;49.324;8.694;2022-07-24T02:51:07;4.25;;;3.85;;
38715;SDS011;24833;49.324;8.694;2022-07-24T02:53:34;4.47;;;3.70;;
38715;SDS011;24833;49.324;8.694;2022-07-24T02:56:01;3.95;;;3.55;;
38715;SDS011;24833;49.324;8.694;2022-07-24T02:58:28;4.45;;;4.05;;
38715;SDS011;24833;49.324;8.694;2022-07-24T03:00:56;4.78;;;4.07;;
38715;SDS011;24833;49.324;8.694;2022-07-24T03:03:23;4.97;;;4.00;;
38715;SDS011;24833;49.324;8.694;2022-07-24T03:05:50;3.90;;;3.60;;
38715;SDS011;24833;49.324;8.694;2022-07-24T03:08:17;4.38;;;3.80;;
38715;SDS011;24833;49.324;8.694;2022-07-24T03:10:44;3.40;;;3.10;;
38715;SDS011;24833;49.324;8.694;2022-07-24T03:13:11;3.50;;;3.20;;
38715;SDS011;24833;49.324;8.694;2022-07-24T03:15:38;4.00;;;3.35;;
38715;SDS011;24833;49.324;8.694;2022-07-24T03:18:05;3.58;;;3.28;;
38715;SDS011;24833;49.324;8.694;2022-07-24T03:20:48;5.10;;;3.58;;
38715;SDS011;24833;49.324;8.694;2022-07-24T03:23:15;5.18;;;3.45;;
38715;SDS011;24833;49.324;8.694;2022-07-24T03:25:42;4.03;;;3.63;;
38715;SDS011;24833;49.324;8.694;2022-07-24T03:28:09;5.53;;;3.33;;
38715;SDS011;24833;49.324;8.694;2022-07-24T03:30:36;3.50;;;2.88;;
38715;SDS011;24833;49.324;8.694;2022-07-24T03:33:03;4.30;;;3.78;;
38715;SDS011;24833;49.324;8.694;2022-07-24T03:35:30;4.90;;;3.58;;
38715;SDS011;24833;49.324;8.694;2022-07-24T03:37:57;5.65;;;3.08;;
38715;SDS011;24833;49.324;8.694;2022-07-24T03:40:24;3.75;;;2.97;;
38715;SDS011;24833;49.324;8.694;2022-07-24T03:42:52;3.75;;;2.90;;
38715;SDS011;24833;49.324;8.694;2022-07-24T03:45:19;3.15;;;2.75;;
38715;SDS011;24833;49.324;8.694;2022-07-24T03:47:46;3.33;;;2.92;;
38715;SDS011;24833;49.324;8.694;2022-07-24T03:50:13;2.95;;;2.65;;
38715;SDS011;24833;49.324;8.694;2022-07-24T03:52:47;3.65;;;3.28;;
38715;SDS011;24833;49.324;8.694;2022-07-24T03:55:16;3.58;;;2.97;;
38715;SDS011;24833;49.324;8.694;2022-07-24T03:57:43;4.60;;;3.15;;
38715;SDS011;24833;49.324;8.694;2022-07-24T04:00:10;3.63;;;3.13;;
38715;SDS011;24833;49.324;8.694;2022-07-24T04:02:38;3.50;;;3.17;;
38715;SDS011;24833;49.324;8.694;2022-07-24T04:05:06;5.32;;;2.95;;
38715;SDS011;24833;49.324;8.694;2022-07-24T04:07:35;6.00;;;2.65;;
38715;SDS011;24833;49.324;8.694;2022-07-24T04:10:04;3.15;;;2.85;;
38715;SDS011;24833;49.324;8.694;2022-07-24T04:12:33;3.92;;;2.75;;
38715;SDS011;24833;49.324;8.694;2022-07-24T04:15:01;3.22;;;2.92;;
38715;SDS011;24833;49.324;8.694;2022-07-24T04:17:28;4.35;;;2.95;;
38715;SDS011;24833;49.324;8.694;2022-07-24T04:19:55;3.50;;;2.95;;
38715;SDS011;24833;49.324;8.694;2022-07-24T04:22:22;4.18;;;3.08;;
38715;SDS011;24833;49.324;8.694;2022-07-24T04:24:50;4.15;;;2.90;;
38715;SDS011;24833;49.324;8.694;2022-07-24T04:27:17;4.13;;;3.30;;
38715;SDS011;24833;49.324;8.694;2022-07-24T04:29:44;4.18;;;3.00;;
38715;SDS011;24833;49.324;8.694;2022-07-24T04:32:11;3.55;;;3.25;;
38715;SDS011;24833;49.324;8.694;2022-07-24T04:34:38;2.83;;;2.63;;
38715;SDS011;24833;49.324;8.694;2022-07-24T04:37:05;3.13;;;2.83;;
38715;SDS011;24833;49.324;8.694;2022-07-24T04:39:32;4.38;;;3.53;;
38715;SDS011;24833;49.324;8.694;2022-07-24T04:42:00;3.58;;;3.28;;
38715;SDS011;24833;49.324;8.694;2022-07-24T04:44:27;4.32;;;3.70;;
38715;SDS011;24833;49.324;8.694;2022-07-24T04:46:54;4.00;;;3.70;;
38715;SDS011;24833;49.324;8.694;2022-07-24T04:49:21;6.18;;;3.70;;
38715;SDS011;24833;49.324;8.694;2022-07-24T04:51:48;5.10;;;4.20;;
38715;SDS011;24833;49.324;8.694;2022-07-24T04:54:15;4.32;;;3.85;;
38715;SDS011;24833;49.324;8.694;2022-07-24T04:56:42;4.22;;;3.83;;
38715;SDS011;24833;49.324;8.694;2022-07-24T04:59:09;4.10;;;3.70;;
38715;SDS011;24833;49.324;8.694;2022-07-24T05:01:36;4.63;;;4.22;;
38715;SDS011;24833;49.324;8.694;2022-07-24T05:04:04;4.75;;;3.17;;
38715;SDS011;24833;49.324;8.694;2022-07-24T05:06:31;5.03;;;3.60;;
38715;SDS011;24833;49.324;8.694;2022-07-24T05:08:58;4.53;;;3.38;;
38715;SDS011;24833;49.324;8.694;2022-07-24T05:11:26;3.30;;;3.00;;
38715;SDS011;24833;49.324;8.694;2022-07-24T05:13:53;3.58;;;3.28;;
38715;SDS011;24833;49.324;8.694;2022-07-24T05:16:20;3.47;;;2.92;;
38715;SDS011;24833;49.324;8.694;2022-07-24T05:18:47;4.25;;;3.85;;
38715;SDS011;24833;49.324;8.694;2022-07-24T05:21:14;4.50;;;3.63;;
38715;SDS011;24833;49.324;8.694;2022-07-24T05:23:42;4.07;;;3.67;;
38715;SDS011;24833;49.324;8.694;2022-07-24T05:26:11;4.25;;;3.22;;
38715;SDS011;24833;49.324;8.694;2022-07-24T05:28:38;4.25;;;3.53;;
38715;SDS011;24833;49.324;8.694;2022-07-24T05:31:05;4.43;;;4.03;;
38715;SDS011;24833;49.324;8.694;2022-07-24T05:33:34;3.63;;;3.28;;
38715;SDS011;24833;49.324;8.694;2022-07-24T05:36:02;5.95;;;3.92;;
38715;SDS011;24833;49.324;8.694;2022-07-24T05:38:29;4.85;;;3.95;;
38715;SDS011;24833;49.324;8.694;2022-07-24T05:40:57;4.63;;;3.83;;
38715;SDS011;24833;49.324;8.694;2022-07-24T05:43:24;5.30;;;3.88;;
38715;SDS011;24833;49.324;8.694;2022-07-24T05:45:51;4.97;;;3.63;;
38715;SDS011;24833;49.324;8.694;2022-07-24T05:48:18;4.47;;;3.83;;
38715;SDS011;24833;49.324;8.694;2022-07-24T05:50:45;6.18;;;4.22;;
38715;SDS011;24833;49.324;8.694;2022-07-24T05:53:12;5.45;;;4.07;;
38715;SDS011;24833;49.324;8.694;2022-07-24T05:55:39;4.50;;;3.88;;
38715;SDS011;24833;49.324;8.694;2022-07-24T05:58:06;3.47;;;3.17;;
38715;SDS011;24833;49.324;8.694;2022-07-24T06:00:34;5.53;;;3.83;;
38715;SDS011;24833;49.324;8.694;2022-07-24T06:03:01;4.70;;;3.90;;
38715;SDS011;24833;49.324;8.694;2022-07-24T06:05:28;4.72;;;3.45;;
38715;SDS011;24833;49.324;8.694;2022-07-24T06:07:55;3.90;;;3.55;;
38715;SDS011;24833;49.324;8.694;2022-07-24T06:10:22;6.10;;;3.88;;
38715;SDS011;24833;49.324;8.694;2022-07-24T06:12:52;5.90;;;3.50;;
38715;SDS011;24833;49.324;8.694;2022-07-24T06:15:19;5.35;;;3.90;;
38715;SDS011;24833;49.324;8.694;2022-07-24T06:17:46;5.10;;;3.83;;
38715;SDS011;24833;49.324;8.694;2022-07-24T06:20:13;4.43;;;3.40;;
38715;SDS011;24833;49.324;8.694;2022-07-24T06:22:43;6.38;;;3.70;;
38715;SDS011;24833;49.324;8.694;2022-07-24T06:25:14;6.15;;;3.45;;
38715;SDS011;24833;49.324;8.694;2022-07-24T06:27:47;3.75;;;3.20;;
38715;SDS011;24833;49.324;8.694;2022-07-24T06:30:16;5.07;;;3.47;;
38715;SDS011;24833;49.324;8.694;2022-07-24T06:32:51;4.68;;;3.63;;
38715;SDS011;24833;49.324;8.694;2022-07-24T06:35:21;3.22;;;3.00;;
38715;SDS011;24833;49.324;8.694;2022-07-24T06:37:49;4.45;;;3.40;;
38715;SDS011;24833;49.324;8.694;2022-07-24T06:40:17;3.75;;;3.25;;
38715;SDS011;24833;49.324;8.694;2022-07-24T06:42:46;3.20;;;2.90;;
38715;SDS011;24833;49.324;8.694;2022-07-24T06:45:14;3.85;;;3.17;;
38715;SDS011;24833;49.324;8.694;2022-07-24T06:47:41;4.47;;;3.10;;
38715;SDS011;24833;49.324;8.694;2022-07-24T06:50:09;5.00;;;4.05;;
38715;SDS011;24833;49.324;8.694;2022-07-24T06:52:38;3.40;;;3.10;;
38715;SDS011;24833;49.324;8.694;2022-07-24T06:55:06;4.15;;;3.30;;
38715;SDS011;24833;49.324;8.694;2022-07-24T06:57:33;4.45;;;3.65;;
38715;SDS011;24833;49.324;8.694;2022-07-24T07:00:00;4.15;;;3.33;;
38715;SDS011;24833;49.324;8.694;2022-07-24T07:02:28;3.58;;;3.28;;
38715;SDS011;24833;49.324;8.694;2022-07-24T07:04:56;3.20;;;2.90;;
38715;SDS011;24833;49.324;8.694;2022-07-24T07:07:23;3.35;;;3.05;;
38715;SDS011;24833;49.324;8.694;2022-07-24T07:09:50;3.25;;;2.80;;
38715;SDS011;24833;49.324;8.694;2022-07-24T07:12:17;4.45;;;3.00;;
38715;SDS011;24833;49.324;8.694;2022-07-24T07:14:45;3.03;;;2.80;;
38715;SDS011;24833;49.324;8.694;2022-07-24T07:17:12;4.25;;;3.63;;
38715;SDS011;24833;49.324;8.694;2022-07-24T07:19:39;4.78;;;3.90;;
38715;SDS011;24833;49.324;8.694;2022-07-24T07:22:06;6.15;;;4.30;;
38715;SDS011;24833;49.324;8.694;2022-07-24T07:24:33;5.18;;;4.07;;
38715;SDS011;24833;49.324;8.694;2022-07-24T07:27:00;5.05;;;4.00;;
38715;SDS011;24833;49.324;8.694;2022-07-24T07:29:27;8.73;;;4.57;;
38715;SDS011;24833;49.324;8.694;2022-07-24T07:31:56;4.07;;;3.78;;
38715;SDS011;24833;49.324;8.694;2022-07-24T07:34:23;4.93;;;4.28;;
38715;SDS011;24833;49.324;8.694;2022-07-24T07:36:50;3.90;;;3.60;;
38715;SDS011;24833;49.324;8.694;2022-07-24T07:39:17;4.75;;;4.25;;
38715;SDS011;24833;49.324;8.694;2022-07-24T07:41:44;5.65;;;4.20;;
38715;SDS011;24833;49.324;8.694;2022-07-24T07:44:12;5.43;;;4.22;;
38715;SDS011;24833;49.324;8.694;2022-07-24T07:46:38;5.50;;;4.22;;
38715;SDS011;24833;49.324;8.694;2022-07-24T07:49:06;5.13;;;4.38;;
38715;SDS011;24833;49.324;8.694;2022-07-24T07:51:34;5.25;;;4.28;;
38715;SDS011;24833;49.324;8.694;2022-07-24T07:54:01;4.93;;;4.47;;
38715;SDS011;24833;49.324;8.694;2022-07-24T07:56:29;5.78;;;4.45;;
38715;SDS011;24833;49.324;8.694;2022-07-24T07:58:57;4.97;;;4.13;;
38715;SDS011;24833;49.324;8.694;2022-07-24T08:01:28;5.45;;;4.05;;
38715;SDS011;24833;49.324;8.694;2022-07-24T08:03:55;6.63;;;4.90;;
38715;SDS011;24833;49.324;8.694;2022-07-24T08:06:22;4.70;;;4.25;;
38715;SDS011;24833;49.324;8.694;2022-07-24T08:08:51;6.10;;;4.20;;
38715;SDS011;24833;49.324;8.694;2022-07-24T08:11:18;5.45;;;4.20;;
38715;SDS011;24833;49.324;8.694;2022-07-24T08:13:45;6.13;;;4.57;;
38715;SDS011;24833;49.324;8.694;2022-07-24T08:16:12;6.20;;;4.38;;
38715;SDS011;24833;49.324;8.694;2022-07-24T08:18:39;7.15;;;5.35;;
38715;SDS011;24833;49.324;8.694;2022-07-24T08:21:06;7.28;;;5.40;;
38715;SDS011;24833;49.324;8.694;2022-07-24T08:23:33;7.20;;;5.70;;
38715;SDS011;24833;49.324;8.694;2022-07-24T08:26:00;4.97;;;4.55;;
38715;SDS011;24833;49.324;8.694;2022-07-24T08:28:27;4.78;;;4.28;;
38715;SDS011;24833;49.324;8.694;2022-07-24T08:30:54;7.63;;;4.80;;
38715;SDS011;24833;49.324;8.694;2022-07-24T08:33:22;6.97;;;4.90;;
38715;SDS011;24833;49.324;8.694;2022-07-24T08:35:49;7.00;;;4.40;;
38715;SDS011;24833;49.324;8.694;2022-07-24T08:38:16;9.18;;;5.43;;
38715;SDS011;24833;49.324;8.694;2022-07-24T08:40:45;5.88;;;4.80;;
38715;SDS011;24833;49.324;8.694;2022-07-24T08:43:12;5.25;;;4.68;;
38715;SDS011;24833;49.324;8.694;2022-07-24T08:45:40;7.40;;;5.40;;
38715;SDS011;24833;49.324;8.694;2022-07-24T08:48:10;5.57;;;4.70;;
38715;SDS011;24833;49.324;8.694;2022-07-24T08:50:41;6.00;;;5.40;;
38715;SDS011;24833;49.324;8.694;2022-07-24T08:53:08;5.22;;;4.72;;
38715;SDS011;24833;49.324;8.694;2022-07-24T08:55:37;6.13;;;4.90;;
38715;SDS011;24833;49.324;8.694;2022-07-24T08:58:04;5.43;;;4.60;;
38715;SDS011;24833;49.324;8.694;2022-07-24T09:00:31;5.97;;;5.38;;
38715;SDS011;24833;49.324;8.694;2022-07-24T09:02:59;6.47;;;5.25;;
38715;SDS011;24833;49.324;8.694;2022-07-24T09:05:26;5.60;;;5.05;;
38715;SDS011;24833;49.324;8.694;2022-07-24T09:08:12;6.07;;;5.13;;
38715;SDS011;24833;49.324;8.694;2022-07-24T09:10:52;5.30;;;4.80;;
38715;SDS011;24833;49.324;8.694;2022-07-24T09:13:24;7.55;;;4.82;;
38715;SDS011;24833;49.324;8.694;2022-07-24T09:15:53;4.95;;;4.45;;
38715;SDS011;24833;49.324;8.694;2022-07-24T09:18:30;4.70;;;4.30;;
38715;SDS011;24833;49.324;8.694;2022-07-24T09:21:11;5.55;;;4.38;;
38715;SDS011;24833;49.324;8.694;2022-07-24T09:23:41;5.72;;;4.78;;
38715;SDS011;24833;49.324;8.694;2022-07-24T09:26:09;5.63;;;5.13;;
38715;SDS011;24833;49.324;8.694;2022-07-24T09:28:51;5.38;;;4.88;;
38715;SDS011;24833;49.324;8.694;2022-07-24T09:31:20;6.13;;;4.25;;
38715;SDS011;24833;49.324;8.694;2022-07-24T09:33:51;6.45;;;4.60;;
38715;SDS011;24833;49.324;8.694;2022-07-24T09:36:18;5.15;;;4.18;;
38715;SDS011;24833;49.324;8.694;2022-07-24T09:38:47;9.90;;;4.45;;
38715;SDS011;24833;49.324;8.694;2022-07-24T09:43:55;5.15;;;4.65;;
38715;SDS011;24833;49.324;8.694;2022-07-24T09:46:44;4.53;;;4.18;;
38715;SDS011;24833;49.324;8.694;2022-07-24T09:49:20;6.20;;;4.60;;
38715;SDS011;24833;49.324;8.694;2022-07-24T09:52:08;5.43;;;4.88;;
38715;SDS011;24833;49.324;8.694;2022-07-24T09:54:49;5.28;;;4.78;;
38715;SDS011;24833;49.324;8.694;2022-07-24T09:57:20;5.40;;;4.90;;
38715;SDS011;24833;49.324;8.694;2022-07-24T10:00:02;5.20;;;4.80;;
38715;SDS011;24833;49.324;8.694;2022-07-24T10:02:33;5.47;;;4.78;;
38715;SDS011;24833;49.324;8.694;2022-07-24T10:05:02;4.85;;;4.15;;
38715;SDS011;24833;49.324;8.694;2022-07-24T10:07:31;5.10;;;4.25;;
38715;SDS011;24833;49.324;8.694;2022-07-24T10:09:59;5.97;;;4.88;;
38715;SDS011;24833;49.324;8.694;2022-07-24T10:12:28;7.07;;;4.37;;
38715;SDS011;24833;49.324;8.694;2022-07-24T10:14:58;5.20;;;4.70;;
38715;SDS011;24833;49.324;8.694;2022-07-24T10:20:35;4.70;;;4.30;;
38715;SDS011;24833;49.324;8.694;2022-07-24T10:23:09;5.22;;;4.70;;
38715;SDS011;24833;49.324;8.694;2022-07-24T10:25:55;7.13;;;4.85;;
38715;SDS011;24833;49.324;8.694;2022-07-24T10:31:07;5.45;;;4.90;;
38715;SDS011;24833;49.324;8.694;2022-07-24T10:33:37;4.65;;;4.20;;
38715;SDS011;24833;49.324;8.694;2022-07-24T10:36:17;5.35;;;4.85;;
38715;SDS011;24833;49.324;8.694;2022-07-24T10:38:56;4.78;;;4.10;;
38715;SDS011;24833;49.324;8.694;2022-07-24T10:41:30;5.43;;;4.93;;
38715;SDS011;24833;49.324;8.694;2022-07-24T10:44:14;7.00;;;5.07;;
38715;SDS011;24833;49.324;8.694;2022-07-24T10:49:34;8.00;;;5.63;;
38715;SDS011;24833;49.324;8.694;2022-07-24T10:52:06;5.13;;;4.63;;
38715;SDS011;24833;49.324;8.694;2022-07-24T10:54:37;5.18;;;4.68;;
38715;SDS011;24833;49.324;8.694;2022-07-24T10:57:05;5.20;;;4.70;;
38715;SDS011;24833;49.324;8.694;2022-07-24T10:59:33;6.03;;;4.53;;
38715;SDS011;24833;49.324;8.694;2022-07-24T11:02:24;6.53;;;5.88;;
38715;SDS011;24833;49.324;8.694;2022-07-24T11:10:45;5.10;;;4.70;;
38715;SDS011;24833;49.324;8.694;2022-07-24T11:26:54;7.20;;;4.50;;
38715;SDS011;24833;49.324;8.694;2022-07-24T11:31:57;5.53;;;4.50;;
38715;SDS011;24833;49.324;8.694;2022-07-24T11:34:44;5.10;;;4.60;;
38715;SDS011;24833;49.324;8.694;2022-07-24T11:37:13;5.00;;;4.50;;
38715;SDS011;24833;49.324;8.694;2022-07-24T11:39:42;10.85;;;4.53;;
38715;SDS011;24833;49.324;8.694;2022-07-24T11:42:15;5.20;;;4.70;;
38715;SDS011;24833;49.324;8.694;2022-07-24T11:44:44;4.95;;;4.45;;
38715;SDS011;24833;49.324;8.694;2022-07-24T11:49:48;8.57;;;5.30;;
38715;SDS011;24833;49.324;8.694;2022-07-24T11:54:49;4.80;;;4.18;;
38715;SDS011;24833;49.324;8.694;2022-07-24T11:57:23;4.88;;;4.00;;
38715;SDS011;24833;49.324;8.694;2022-07-24T12:00:22;4.18;;;3.75;;
38715;SDS011;24833;49.324;8.694;2022-07-24T12:02:58;4.00;;;3.60;;
38715;SDS011;24833;49.324;8.694;2022-07-24T12:05:29;4.82;;;3.80;;
38715;SDS011;24833;49.324;8.694;2022-07-24T12:08:00;4.30;;;3.85;;
38715;SDS011;24833;49.324;8.694;2022-07-24T12:10:30;5.28;;;3.72;;
38715;SDS011;24833;49.324;8.694;2022-07-24T12:12:58;3.50;;;3.20;;
38715;SDS011;24833;49.324;8.694;2022-07-24T12:15:25;3.00;;;2.80;;
38715;SDS011;24833;49.324;8.694;2022-07-24T12:17:54;3.50;;;3.20;;
38715;SDS011;24833;49.324;8.694;2022-07-24T12:23:08;3.78;;;3.28;;
38715;SDS011;24833;49.324;8.694;2022-07-24T12:25:38;3.97;;;3.67;;
38715;SDS011;24833;49.324;8.694;2022-07-24T12:28:07;4.85;;;3.47;;
38715;SDS011;24833;49.324;8.694;2022-07-24T12:30:53;4.38;;;3.22;;
38715;SDS011;24833;49.324;8.694;2022-07-24T12:33:21;3.05;;;2.85;;
38715;SDS011;24833;49.324;8.694;2022-07-24T12:36:06;4.90;;;3.20;;
38715;SDS011;24833;49.324;8.694;2022-07-24T12:38:52;3.58;;;3.05;;
38715;SDS011;24833;49.324;8.694;2022-07-24T12:41:21;3.83;;;3.42;;
38715;SDS011;24833;49.324;8.694;2022-07-24T12:43:52;3.50;;;3.20;;
38715;SDS011;24833;49.324;8.694;2022-07-24T12:46:32;3.10;;;2.80;;
38715;SDS011;24833;49.324;8.694;2022-07-24T12:49:04;4.57;;;3.72;;
38715;SDS011;24833;49.324;8.694;2022-07-24T12:51:52;3.30;;;3.00;;
38715;SDS011;24833;49.324;8.694;2022-07-24T12:54:33;4.03;;;3.30;;
38715;SDS011;24833;49.324;8.694;2022-07-24T12:57:09;3.90;;;3.13;;
38715;SDS011;24833;49.324;8.694;2022-07-24T12:59:45;3.60;;;3.00;;
38715;SDS011;24833;49.324;8.694;2022-07-24T13:02:16;3.72;;;3.10;;
38715;SDS011;24833;49.324;8.694;2022-07-24T13:04:48;3.97;;;3.15;;
38715;SDS011;24833;49.324;8.694;2022-07-24T13:07:19;3.72;;;3.35;;
38715;SDS011;24833;49.324;8.694;2022-07-24T13:09:50;3.60;;;3.10;;
38715;SDS011;24833;49.324;8.694;2022-07-24T13:12:19;4.05;;;3.30;;
38715;SDS011;24833;49.324;8.694;2022-07-24T13:14:48;3.58;;;3.20;;
38715;SDS011;24833;49.324;8.694;2022-07-24T13:19:45;4.28;;;3.42;;
38715;SDS011;24833;49.324;8.694;2022-07-24T13:22:17;3.42;;;3.13;;
38715;SDS011;24833;49.324;8.694;2022-07-24T13:24:44;4.63;;;3.10;;
38715;SDS011;24833;49.324;8.694;2022-07-24T13:27:12;3.45;;;3.15;;
38715;SDS011;24833;49.324;8.694;2022-07-24T13:29:41;7.03;;;3.50;;
38715;SDS011;24833;49.324;8.694;2022-07-24T13:32:09;3.40;;;3.10;;
38715;SDS011;24833;49.324;8.694;2022-07-24T13:34:37;4.05;;;3.47;;
38715;SDS011;24833;49.324;8.694;2022-07-24T13:37:04;6.07;;;3.63;;
38715;SDS011;24833;49.324;8.694;2022-07-24T13:39:33;4.95;;;3.58;;
38715;SDS011;24833;49.324;8.694;2022-07-24T13:42:03;3.65;;;3.22;;
38715;SDS011;24833;49.324;8.694;2022-07-24T13:44:30;3.67;;;3.38;;
38715;SDS011;24833;49.324;8.694;2022-07-24T13:46:58;3.28;;;2.97;;
38715;SDS011;24833;49.324;8.694;2022-07-24T13:49:25;3.45;;;3.10;;
38715;SDS011;24833;49.324;8.694;2022-07-24T13:51:53;3.58;;;3.10;;
38715;SDS011;24833;49.324;8.694;2022-07-24T13:54:21;3.13;;;2.90;;
38715;SDS011;24833;49.324;8.694;2022-07-24T13:56:48;3.83;;;3.05;;
38715;SDS011;24833;49.324;8.694;2022-07-24T13:59:16;4.10;;;3.70;;
38715;SDS011;24833;49.324;8.694;2022-07-24T14:01:43;3.70;;;3.40;;
38715;SDS011;24833;49.324;8.694;2022-07-24T14:04:11;3.50;;;3.20;;
38715;SDS011;24833;49.324;8.694;2022-07-24T14:06:56;3.80;;;2.80;;
38715;SDS011;24833;49.324;8.694;2022-07-24T14:09:24;3.97;;;3.00;;
38715;SDS011;24833;49.324;8.694;2022-07-24T14:11:52;4.78;;;3.00;;
38715;SDS011;24833;49.324;8.694;2022-07-24T14:14:20;3.20;;;2.88;;
38715;SDS011;24833;49.324;8.694;2022-07-24T14:16:47;3.50;;;3.20;;
38715;SDS011;24833;49.324;8.694;2022-07-24T14:19:15;3.20;;;2.90;;
38715;SDS011;24833;49.324;8.694;2022-07-24T14:21:43;3.42;;;3.13;;
38715;SDS011;24833;49.324;8.694;2022-07-24T14:24:15;3.22;;;2.95;;
38715;SDS011;24833;49.324;8.694;2022-07-24T14:26:45;3.67;;;3.20;;
38715;SDS011;24833;49.324;8.694;2022-07-24T14:29:13;3.15;;;2.95;;
38715;SDS011;24833;49.324;8.694;2022-07-24T14:31:41;4.05;;;3.13;;
38715;SDS011;24833;49.324;8.694;2022-07-24T14:34:08;3.88;;;3.40;;
38715;SDS011;24833;49.324;8.694;2022-07-24T14:36:35;5.15;;;3.17;;
38715;SDS011;24833;49.324;8.694;2022-07-24T14:39:03;2.70;;;2.40;;
38715;SDS011;24833;49.324;8.694;2022-07-24T14:41:31;2.95;;;2.67;;
38715;SDS011;24833;49.324;8.694;2022-07-24T14:43:58;3.38;;;3.08;;
38715;SDS011;24833;49.324;8.694;2022-07-24T14:46:32;4.18;;;3.10;;
38715;SDS011;24833;49.324;8.694;2022-07-24T14:48:59;4.15;;;3.15;;
38715;SDS011;24833;49.324;8.694;2022-07-24T14:51:26;3.47;;;2.80;;
38715;SDS011;24833;49.324;8.694;2022-07-24T14:53:53;3.33;;;3.08;;
38715;SDS011;24833;49.324;8.694;2022-07-24T14:56:21;4.88;;;3.05;;
38715;SDS011;24833;49.324;8.694;2022-07-24T14:58:52;2.95;;;2.60;;
38715;SDS011;24833;49.324;8.694;2022-07-24T15:01:20;3.78;;;2.70;;
38715;SDS011;24833;49.324;8.694;2022-07-24T15:03:48;2.90;;;2.60;;
38715;SDS011;24833;49.324;8.694;2022-07-24T15:06:28;3.85;;;2.92;;
38715;SDS011;24833;49.324;8.694;2022-07-24T15:08:55;3.90;;;3.13;;
38715;SDS011;24833;49.324;8.694;2022-07-24T15:11:23;2.83;;;2.50;;
38715;SDS011;24833;49.324;8.694;2022-07-24T15:13:52;5.28;;;2.88;;
38715;SDS011;24833;49.324;8.694;2022-07-24T15:16:19;3.80;;;2.83;;
38715;SDS011;24833;49.324;8.694;2022-07-24T15:18:47;3.05;;;2.80;;
38715;SDS011;24833;49.324;8.694;2022-07-24T15:21:14;2.90;;;2.70;;
38715;SDS011;24833;49.324;8.694;2022-07-24T15:23:41;3.30;;;2.63;;
38715;SDS011;24833;49.324;8.694;2022-07-24T15:26:08;3.53;;;3.08;;
38715;SDS011;24833;49.324;8.694;2022-07-24T15:28:35;5.10;;;2.67;;
38715;SDS011;24833;49.324;8.694;2022-07-24T15:31:02;4.53;;;2.75;;
38715;SDS011;24833;49.324;8.694;2022-07-24T15:33:32;3.95;;;2.65;;
38715;SDS011;24833;49.324;8.694;2022-07-24T15:36:00;3.20;;;2.90;;
38715;SDS011;24833;49.324;8.694;2022-07-24T15:38:27;3.00;;;2.70;;
38715;SDS011;24833;49.324;8.694;2022-07-24T15:40:54;2.67;;;2.40;;
38715;SDS011;24833;49.324;8.694;2022-07-24T15:43:21;4.22;;;2.75;;